Time;durP1;ratioP1;P1;durP2;ratioP2;P2;SDS_P1;SDS_P2;PMS_P1;PMS_P2;Temp;Humidity;BMP_temperature;BMP_pressure;BME280_temperature;BME280_humidity;BME280_pressure;Samples;Min_cycle;Max_cycle;Signal;HPM_P1;HPM_P2
2021/10/04 00:01:26;;;;;;;;;1.67;1.67;;;;;;;;5138065;27;8877;-79
2021/10/04 00:03:52;;;;;;;;;2.33;1.67;;;;;;;;5137678;27;8845;-79
2021/10/04 00:06:17;;;;;;;;;1.33;1.33;;;;;;;;5137908;27;8796;-79
2021/10/04 00:08:42;;;;;;;;;1.00;1.00;;;;;;;;5137987;27;8811;-79
2021/10/04 00:11:07;;;;;;;;;2.00;2.00;;;;;;;;5136709;27;8836;-79
2021/10/04 00:13:33;;;;;;;;;3.00;3.00;;;;;;;;5136447;27;8871;-79
2021/10/04 00:15:58;;;;;;;;;1.33;1.33;;;;;;;;5137988;27;8777;-79
2021/10/04 00:18:24;;;;;;;;;2.33;2.33;;;;;;;;5137437;27;8873;-79
2021/10/04 00:20:49;;;;;;;;;2.00;1.33;;;;;;;;5137744;27;8789;-79
2021/10/04 00:23:14;;;;;;;;;2.00;2.00;;;;;;;;5137684;27;8796;-80
2021/10/04 00:25:39;;;;;;;;;3.33;3.33;;;;;;;;5137666;27;8816;-79
2021/10/04 00:28:05;;;;;;;;;2.00;2.00;;;;;;;;5137909;27;8827;-79
2021/10/04 00:30:30;;;;;;;;;1.67;1.67;;;;;;;;5148034;27;8817;-79
2021/10/04 00:32:56;;;;;;;;;1.33;1.33;;;;;;;;5158241;27;8777;-79
2021/10/04 00:35:22;;;;;;;;;2.33;2.33;;;;;;;;5158601;27;8793;-79
2021/10/04 00:37:47;;;;;;;;;2.00;2.00;;;;;;;;5158269;27;8746;-79
2021/10/04 00:40:14;;;;;;;;;2.33;2.33;;;;;;;;5158269;27;9623;-79
2021/10/04 00:42:40;;;;;;;;;3.50;2.00;;;;;;;;5157052;27;9566;-79
2021/10/04 00:45:05;;;;;;;;;1.33;1.33;;;;;;;;5158503;27;8761;-79
2021/10/04 00:47:31;;;;;;;;;3.00;2.00;;;;;;;;5157972;27;8786;-79
2021/10/04 00:49:56;;;;;;;;;1.33;1.33;;;;;;;;5157988;27;8896;-79
2021/10/04 00:52:21;;;;;;;;;3.67;3.67;;;;;;;;5158160;27;9623;-79
2021/10/04 00:54:46;;;;;;;;;0.33;0.33;;;;;;;;5158285;27;8782;-79
2021/10/04 00:57:12;;;;;;;;;1.33;0.00;;;;;;;;5158112;27;8794;-79
2021/10/04 00:59:37;;;;;;;;;1.67;1.67;;;;;;;;5158070;27;8802;-79
2021/10/04 01:02:03;;;;;;;;;2.33;2.33;;;;;;;;5157913;27;8786;-79
2021/10/04 01:04:28;;;;;;;;;2.33;2.33;;;;;;;;5157905;27;8804;-79
2021/10/04 01:06:54;;;;;;;;;2.00;2.00;;;;;;;;5156822;27;8805;-79
2021/10/04 01:09:19;;;;;;;;;1.75;1.25;;;;;;;;5161758;27;9738;-79
2021/10/04 01:11:45;;;;;;;;;2.33;2.33;;;;;;;;5161746;27;8862;-79
2021/10/04 01:14:10;;;;;;;;;1.33;1.33;;;;;;;;5161977;27;8790;-80
2021/10/04 01:16:35;;;;;;;;;1.33;1.00;;;;;;;;5160074;27;8870;-79
2021/10/04 01:19:01;;;;;;;;;2.67;2.00;;;;;;;;5161232;27;8809;-79
2021/10/04 01:21:26;;;;;;;;;1.67;1.67;;;;;;;;5161434;27;8794;-79
2021/10/04 01:23:51;;;;;;;;;1.00;1.00;;;;;;;;5161449;27;8876;-79
2021/10/04 01:26:17;;;;;;;;;1.67;1.33;;;;;;;;5161439;27;8798;-79
2021/10/04 01:28:42;;;;;;;;;3.33;2.33;;;;;;;;5161301;27;8794;-79
2021/10/04 01:31:07;;;;;;;;;1.67;1.67;;;;;;;;5145367;27;8824;-78
2021/10/04 01:33:32;;;;;;;;;4.00;2.00;;;;;;;;5138906;27;8913;-79
2021/10/04 01:35:58;;;;;;;;;1.33;1.33;;;;;;;;5140409;27;8788;-79
2021/10/04 01:38:23;;;;;;;;;2.33;2.33;;;;;;;;5140258;27;8809;-79
2021/10/04 01:40:48;;;;;;;;;2.00;2.00;;;;;;;;5140411;27;8776;-79
2021/10/04 01:43:13;;;;;;;;;2.33;2.33;;;;;;;;5140356;27;8817;-79
2021/10/04 01:45:39;;;;;;;;;1.00;1.00;;;;;;;;5140359;27;8781;-79
2021/10/04 01:48:05;;;;;;;;;2.00;2.00;;;;;;;;5138631;27;8828;-79
2021/10/04 01:50:32;;;;;;;;;2.00;2.00;;;;;;;;5138809;27;8828;-79
2021/10/04 01:52:57;;;;;;;;;3.00;2.50;;;;;;;;5140027;27;8781;-79
2021/10/04 01:55:22;;;;;;;;;2.33;2.33;;;;;;;;5140195;27;8792;-79
2021/10/04 01:57:48;;;;;;;;;2.00;2.00;;;;;;;;5140164;27;8816;-78
2021/10/04 02:00:16;;;;;;;;;3.00;2.33;;;;;;;;5140159;27;8796;-79
2021/10/04 02:02:42;;;;;;;;;2.00;2.00;;;;;;;;5139857;27;8701;-79
2021/10/04 02:05:08;;;;;;;;;1.75;1.75;;;;;;;;5139787;27;8791;-79
2021/10/04 02:07:34;;;;;;;;;1.33;1.33;;;;;;;;5139924;27;8772;-79
2021/10/04 02:10:00;;;;;;;;;4.00;3.00;;;;;;;;5139624;27;8785;-79
2021/10/04 02:12:25;;;;;;;;;2.00;2.00;;;;;;;;5139869;27;8801;-78
2021/10/04 02:14:50;;;;;;;;;4.00;3.00;;;;;;;;5139887;27;8796;-78
2021/10/04 02:17:15;;;;;;;;;2.00;2.00;;;;;;;;5139404;27;8816;-79
2021/10/04 02:19:41;;;;;;;;;2.00;2.00;;;;;;;;5138844;27;8953;-79
2021/10/04 02:22:06;;;;;;;;;2.00;2.00;;;;;;;;5139715;27;8811;-78
2021/10/04 02:24:32;;;;;;;;;2.00;2.00;;;;;;;;5139608;27;8911;-79
2021/10/04 02:26:57;;;;;;;;;2.33;2.33;;;;;;;;5139740;27;8784;-78
2021/10/04 02:29:22;;;;;;;;;2.00;2.00;;;;;;;;5140135;27;8848;-78
2021/10/04 02:31:48;;;;;;;;;2.67;2.67;;;;;;;;5160478;27;9622;-79
2021/10/04 02:34:13;;;;;;;;;1.75;1.75;;;;;;;;5158757;27;9727;-78
2021/10/04 02:36:39;;;;;;;;;2.67;2.67;;;;;;;;5160083;27;8786;-79
2021/10/04 02:39:04;;;;;;;;;2.00;2.00;;;;;;;;5160309;27;8790;-79
2021/10/04 02:41:29;;;;;;;;;3.00;3.00;;;;;;;;5160116;27;8762;-78
2021/10/04 02:43:54;;;;;;;;;2.00;2.00;;;;;;;;5160347;27;8816;-79
2021/10/04 02:46:20;;;;;;;;;3.00;3.00;;;;;;;;5160310;27;8801;-78
2021/10/04 02:48:45;;;;;;;;;2.00;1.67;;;;;;;;5159706;27;8835;-79
2021/10/04 02:51:11;;;;;;;;;3.00;3.00;;;;;;;;5159997;27;8814;-79
2021/10/04 02:53:36;;;;;;;;;1.33;1.33;;;;;;;;5160038;27;8808;-79
2021/10/04 02:56:02;;;;;;;;;3.00;2.33;;;;;;;;5160028;27;8840;-79
2021/10/04 02:58:27;;;;;;;;;3.00;3.00;;;;;;;;5158492;27;8810;-79
2021/10/04 03:00:52;;;;;;;;;1.00;1.00;;;;;;;;5159815;27;8822;-79
2021/10/04 03:03:17;;;;;;;;;2.67;2.00;;;;;;;;5159721;27;8778;-79
2021/10/04 03:05:43;;;;;;;;;1.00;1.00;;;;;;;;5159614;27;8793;-79
2021/10/04 03:08:08;;;;;;;;;2.00;2.00;;;;;;;;5158394;27;8802;-79
2021/10/04 03:10:34;;;;;;;;;2.00;2.00;;;;;;;;5158244;27;8814;-79
2021/10/04 03:12:59;;;;;;;;;2.75;2.75;;;;;;;;5159770;27;8822;-79
2021/10/04 03:15:25;;;;;;;;;0.33;0.33;;;;;;;;5159681;27;8789;-79
2021/10/04 03:17:50;;;;;;;;;3.00;2.00;;;;;;;;5157994;27;8825;-79
2021/10/04 03:20:15;;;;;;;;;1.33;1.33;;;;;;;;5159735;27;8782;-78
2021/10/04 03:22:41;;;;;;;;;2.00;2.00;;;;;;;;5159591;27;8926;-79
2021/10/04 03:25:07;;;;;;;;;1.33;1.33;;;;;;;;5159411;27;8774;-79
2021/10/04 03:27:32;;;;;;;;;1.67;1.67;;;;;;;;5158140;27;9930;-79
2021/10/04 03:29:57;;;;;;;;;2.00;2.00;;;;;;;;5153282;27;8820;-79
2021/10/04 03:32:23;;;;;;;;;2.00;2.00;;;;;;;;5138537;27;8861;-79
2021/10/04 03:34:48;;;;;;;;;2.00;2.00;;;;;;;;5138528;27;8887;-78
2021/10/04 03:37:15;;;;;;;;;2.67;2.33;;;;;;;;5138349;27;8832;-79
2021/10/04 03:39:40;;;;;;;;;1.75;1.75;;;;;;;;5138598;27;8772;-78
2021/10/04 03:42:06;;;;;;;;;2.00;2.00;;;;;;;;5138533;27;8886;-78
2021/10/04 03:44:31;;;;;;;;;1.33;1.33;;;;;;;;5138355;27;8902;-79
2021/10/04 03:46:56;;;;;;;;;2.00;2.00;;;;;;;;5138204;27;9601;-79
2021/10/04 03:49:21;;;;;;;;;4.00;3.00;;;;;;;;5136659;27;8812;-79
2021/10/04 03:51:47;;;;;;;;;2.33;2.33;;;;;;;;5138157;27;9645;-78
2021/10/04 03:54:12;;;;;;;;;2.00;2.00;;;;;;;;5138254;27;8781;-79
2021/10/04 03:56:37;;;;;;;;;3.00;3.00;;;;;;;;5138175;27;8970;-79
2021/10/04 03:59:02;;;;;;;;;1.33;1.33;;;;;;;;5136735;27;8796;-79
2021/10/04 04:01:27;;;;;;;;;1.67;1.67;;;;;;;;5138124;27;8764;-79
2021/10/04 04:03:53;;;;;;;;;2.67;2.67;;;;;;;;5136401;27;8901;-79
2021/10/04 04:06:19;;;;;;;;;3.33;2.00;;;;;;;;5137828;27;8869;-78
2021/10/04 04:08:44;;;;;;;;;3.00;3.00;;;;;;;;5136436;27;8801;-78
2021/10/04 04:11:09;;;;;;;;;2.67;2.67;;;;;;;;5138058;27;8815;-78
2021/10/04 04:13:34;;;;;;;;;2.00;2.00;;;;;;;;5138013;27;8804;-78
2021/10/04 04:16:00;;;;;;;;;2.00;2.00;;;;;;;;5137974;27;8926;-78
2021/10/04 04:18:25;;;;;;;;;2.00;2.00;;;;;;;;5136084;27;9584;-78
2021/10/04 04:20:51;;;;;;;;;2.33;2.33;;;;;;;;5137831;27;8863;-78
2021/10/04 04:23:16;;;;;;;;;2.33;2.33;;;;;;;;5136323;27;8785;-78
2021/10/04 04:25:41;;;;;;;;;1.33;1.33;;;;;;;;5136542;27;8815;-79
2021/10/04 04:28:06;;;;;;;;;3.00;2.00;;;;;;;;5137827;27;8811;-78
2021/10/04 04:30:32;;;;;;;;;2.00;1.00;;;;;;;;5148001;27;9577;-78
2021/10/04 04:32:57;;;;;;;;;3.75;3.75;;;;;;;;5158064;27;8770;-79
2021/10/04 04:35:23;;;;;;;;;3.00;3.00;;;;;;;;5158419;27;8902;-78
2021/10/04 04:37:48;;;;;;;;;3.00;2.33;;;;;;;;5158360;27;8789;-78
2021/10/04 04:40:15;;;;;;;;;5.00;4.00;;;;;;;;5158303;27;8860;-78
2021/10/04 04:42:44;;;;;;;;;2.00;2.00;;;;;;;;5157725;27;8750;-78
2021/10/04 04:45:14;;;;;;;;;2.25;2.00;;;;;;;;5158273;27;9621;-78
2021/10/04 04:47:39;;;;;;;;;2.75;1.75;;;;;;;;5156629;27;8786;-79
2021/10/04 04:50:05;;;;;;;;;2.67;2.67;;;;;;;;5158043;27;8838;-79
2021/10/04 04:52:30;;;;;;;;;3.33;3.33;;;;;;;;5158103;27;8785;-79
2021/10/04 04:54:55;;;;;;;;;3.67;2.67;;;;;;;;5158232;27;8852;-78
2021/10/04 04:57:20;;;;;;;;;2.00;2.00;;;;;;;;5158159;27;8782;-78
2021/10/04 04:59:46;;;;;;;;;3.00;3.00;;;;;;;;5158112;27;8909;-79
2021/10/04 05:02:11;;;;;;;;;1.00;1.00;;;;;;;;5157957;27;8789;-79
2021/10/04 05:04:36;;;;;;;;;1.00;1.00;;;;;;;;5157893;27;8785;-79
2021/10/04 05:07:01;;;;;;;;;2.67;1.33;;;;;;;;5157909;27;8814;-79
2021/10/04 05:09:27;;;;;;;;;2.00;1.00;;;;;;;;5158043;27;8887;-79
2021/10/04 05:11:52;;;;;;;;;1.33;1.33;;;;;;;;5158056;27;8790;-79
2021/10/04 05:14:17;;;;;;;;;1.67;1.67;;;;;;;;5156579;27;8794;-79
2021/10/04 05:16:46;;;;;;;;;2.00;2.00;;;;;;;;5157776;27;8798;-78
2021/10/04 05:19:11;;;;;;;;;1.75;1.75;;;;;;;;5156390;27;8866;-78
2021/10/04 05:21:36;;;;;;;;;1.00;1.00;;;;;;;;5157636;27;8766;-78
2021/10/04 05:24:02;;;;;;;;;3.00;2.00;;;;;;;;5157883;27;8900;-79
2021/10/04 05:26:28;;;;;;;;;1.00;1.00;;;;;;;;5157794;27;8794;-78
2021/10/04 05:28:54;;;;;;;;;1.25;1.25;;;;;;;;5157596;27;8798;-79
2021/10/04 05:31:19;;;;;;;;;2.00;2.00;;;;;;;;5140084;27;8781;-79
2021/10/04 05:33:44;;;;;;;;;2.00;2.00;;;;;;;;5135402;27;8808;-79
2021/10/04 05:36:10;;;;;;;;;1.67;1.00;;;;;;;;5135390;27;8820;-78
2021/10/04 05:38:35;;;;;;;;;1.67;1.67;;;;;;;;5136981;27;8820;-79
2021/10/04 05:41:01;;;;;;;;;2.00;2.00;;;;;;;;5136851;27;8784;-78
2021/10/04 05:43:26;;;;;;;;;2.67;2.67;;;;;;;;5136877;27;8812;-79
2021/10/04 05:45:51;;;;;;;;;4.33;2.67;;;;;;;;5136720;27;8760;-79
2021/10/04 05:48:16;;;;;;;;;2.33;1.67;;;;;;;;5135269;27;8804;-78
2021/10/04 05:50:42;;;;;;;;;2.00;2.00;;;;;;;;5136834;27;8785;-78
2021/10/04 05:53:07;;;;;;;;;3.00;3.00;;;;;;;;5135226;27;9741;-79
2021/10/04 05:55:33;;;;;;;;;3.00;2.00;;;;;;;;5137998;27;8800;-79
2021/10/04 05:57:58;;;;;;;;;3.00;3.00;;;;;;;;5139266;27;8800;-79
2021/10/04 06:00:23;;;;;;;;;2.33;2.33;;;;;;;;5140033;27;8800;-80
2021/10/04 06:02:48;;;;;;;;;2.00;1.00;;;;;;;;5139461;27;8784;-79
2021/10/04 06:05:15;;;;;;;;;1.00;1.00;;;;;;;;5137976;27;8828;-81
2021/10/04 06:07:40;;;;;;;;;2.75;2.00;;;;;;;;5139809;27;8768;-80
2021/10/04 06:10:07;;;;;;;;;1.00;1.00;;;;;;;;5139911;27;8812;-80
2021/10/04 06:12:32;;;;;;;;;2.00;2.00;;;;;;;;5139810;27;8789;-80
2021/10/04 06:14:59;;;;;;;;;2.00;2.00;;;;;;;;5140348;27;8806;-80
2021/10/04 06:17:24;;;;;;;;;2.50;2.00;;;;;;;;5139823;27;8792;-80
2021/10/04 06:19:50;;;;;;;;;1.00;1.00;;;;;;;;5140048;27;8816;-79
2021/10/04 06:22:15;;;;;;;;;3.00;2.00;;;;;;;;5139910;27;8768;-79
2021/10/04 06:24:41;;;;;;;;;3.00;3.00;;;;;;;;5140108;27;8824;-80
2021/10/04 06:27:06;;;;;;;;;2.00;2.00;;;;;;;;5140571;27;8795;-80
2021/10/04 06:29:32;;;;;;;;;2.00;2.00;;;;;;;;5142360;27;8840;-80
2021/10/04 06:31:57;;;;;;;;;2.00;2.00;;;;;;;;5160230;27;8762;-80
2021/10/04 06:34:22;;;;;;;;;3.00;2.00;;;;;;;;5132002;27;8843;-79
2021/10/04 06:36:48;;;;;;;;;2.00;1.00;;;;;;;;5118851;27;9653;-79
2021/10/04 06:39:13;;;;;;;;;5.00;3.00;;;;;;;;5118957;27;8872;-80
2021/10/04 06:41:40;;;;;;;;;2.00;2.00;;;;;;;;5119025;27;8859;-80
2021/10/04 06:44:08;;;;;;;;;2.75;1.00;;;;;;;;5119227;27;8893;-80
2021/10/04 06:46:34;;;;;;;;;2.25;1.75;;;;;;;;5117456;28;8817;-83
2021/10/04 06:48:59;;;;;;;;;4.00;4.00;;;;;;;;5118513;27;8811;-81
2021/10/04 06:51:24;;;;;;;;;2.33;2.33;;;;;;;;5118535;27;8805;-81
2021/10/04 06:53:49;;;;;;;;;3.00;3.00;;;;;;;;5118205;27;8930;-80
2021/10/04 06:56:15;;;;;;;;;4.00;4.00;;;;;;;;5117242;28;8791;-81
2021/10/04 06:58:40;;;;;;;;;3.67;2.33;;;;;;;;5118685;27;8880;-79
2021/10/04 07:01:05;;;;;;;;;3.00;3.00;;;;;;;;5118442;27;8767;-81
2021/10/04 07:03:30;;;;;;;;;3.00;3.00;;;;;;;;5118085;27;9643;-80
2021/10/04 07:05:58;;;;;;;;;2.00;2.00;;;;;;;;5116311;28;8819;-80
2021/10/04 07:08:24;;;;;;;;;2.00;2.00;;;;;;;;5118202;28;8739;-80
2021/10/04 07:10:49;;;;;;;;;3.00;3.00;;;;;;;;5118379;27;8803;-81
2021/10/04 07:13:14;;;;;;;;;3.00;2.00;;;;;;;;5118447;27;8779;-80
2021/10/04 07:15:39;;;;;;;;;3.00;1.00;;;;;;;;5118454;27;8775;-80
2021/10/04 07:18:05;;;;;;;;;1.00;1.00;;;;;;;;5116944;28;8830;-80
2021/10/04 07:20:30;;;;;;;;;2.00;2.00;;;;;;;;5118969;27;8815;-80
2021/10/04 07:22:58;;;;;;;;;2.00;2.00;;;;;;;;5116236;27;8868;-79
2021/10/04 07:25:23;;;;;;;;;1.75;1.50;;;;;;;;5117980;27;8828;-79
2021/10/04 07:27:48;;;;;;;;;3.00;3.00;;;;;;;;5117988;27;8767;-79
2021/10/04 07:30:15;;;;;;;;;2.00;2.00;;;;;;;;5133758;27;8818;-79
2021/10/04 07:32:41;;;;;;;;;4.75;2.00;;;;;;;;5157678;27;8786;-80
2021/10/04 07:35:06;;;;;;;;;0.00;0.00;;;;;;;;5118881;27;8825;-80
2021/10/04 07:37:32;;;;;;;;;1.00;1.00;;;;;;;;5120031;27;8807;-81
2021/10/04 07:39:57;;;;;;;;;1.67;1.67;;;;;;;;5121791;27;8794;-80
2021/10/04 07:42:22;;;;;;;;;3.33;2.00;;;;;;;;5120049;27;8802;-80
2021/10/04 07:44:47;;;;;;;;;2.00;2.00;;;;;;;;5119174;28;8810;-81
2021/10/04 07:47:13;;;;;;;;;2.00;1.33;;;;;;;;5116598;28;9133;-80
2021/10/04 07:49:38;;;;;;;;;2.33;2.00;;;;;;;;5123115;27;8890;-80
2021/10/04 07:52:04;;;;;;;;;3.00;1.33;;;;;;;;5123826;27;8801;-79
2021/10/04 07:54:29;;;;;;;;;1.33;1.33;;;;;;;;5129021;27;8805;-76
2021/10/04 07:56:54;;;;;;;;;2.67;2.67;;;;;;;;5128820;27;8834;-77
2021/10/04 07:59:20;;;;;;;;;2.33;2.33;;;;;;;;5133549;27;8927;-76
2021/10/04 08:01:45;;;;;;;;;7.00;7.00;;;;;;;;5137627;27;8788;-77
2021/10/04 08:04:11;;;;;;;;;2.33;2.33;;;;;;;;5128416;27;8843;-77
2021/10/04 08:06:36;;;;;;;;;1.75;1.75;;;;;;;;5115947;28;8771;-76
2021/10/04 08:09:02;;;;;;;;;4.00;2.67;;;;;;;;5118991;27;8837;-78
2021/10/04 08:11:27;;;;;;;;;3.00;3.00;;;;;;;;5134834;27;8815;-78
2021/10/04 08:13:53;;;;;;;;;3.00;3.00;;;;;;;;5138481;27;8764;-79
2021/10/04 08:16:21;;;;;;;;;1.00;1.00;;;;;;;;5137910;27;8807;-78
2021/10/04 08:18:46;;;;;;;;;1.75;1.75;;;;;;;;5137240;27;8868;-77
2021/10/04 08:21:12;;;;;;;;;3.00;1.33;;;;;;;;5137883;27;8769;-76
2021/10/04 08:23:38;;;;;;;;;2.00;2.00;;;;;;;;5137081;27;8853;-78
2021/10/04 08:26:04;;;;;;;;;3.00;2.00;;;;;;;;5137966;27;8781;-77
2021/10/04 08:28:30;;;;;;;;;2.75;1.00;;;;;;;;5138874;27;8809;-78
2021/10/04 08:30:55;;;;;;;;;2.00;1.67;;;;;;;;5151417;27;8774;-78
2021/10/04 08:33:20;;;;;;;;;0.33;0.33;;;;;;;;5156851;27;8802;-78
2021/10/04 08:35:46;;;;;;;;;1.00;1.00;;;;;;;;5157194;27;8794;-78
2021/10/04 08:38:11;;;;;;;;;2.33;2.00;;;;;;;;5158353;27;8773;-79
2021/10/04 08:40:37;;;;;;;;;2.00;1.33;;;;;;;;5158525;27;8770;-81
2021/10/04 08:43:02;;;;;;;;;1.75;1.00;;;;;;;;5158434;27;8761;-81
2021/10/04 08:45:28;;;;;;;;;1.33;1.33;;;;;;;;5134047;27;8772;-81
2021/10/04 08:47:58;;;;;;;;;1.67;1.67;;;;;;;;5116780;27;9581;-81
2021/10/04 08:50:25;;;;;;;;;2.00;2.00;;;;;;;;5115544;28;8868;-81
2021/10/04 08:52:51;;;;;;;;;0.50;0.50;;;;;;;;5120203;27;8824;-81
2021/10/04 08:55:18;;;;;;;;;2.00;2.00;;;;;;;;5137609;27;8761;-80
2021/10/04 08:57:43;;;;;;;;;1.00;1.00;;;;;;;;5137340;27;8800;-82
2021/10/04 09:00:09;;;;;;;;;1.67;1.00;;;;;;;;5133012;27;8772;-77
2021/10/04 09:02:36;;;;;;;;;1.00;1.00;;;;;;;;5125009;27;8787;-79
2021/10/04 09:05:08;;;;;;;;;1.75;1.75;;;;;;;;5123230;27;8783;-76
2021/10/04 09:07:41;;;;;;;;;0.75;0.75;;;;;;;;5128929;27;8742;-79
2021/10/04 09:10:08;;;;;;;;;2.00;1.75;;;;;;;;5119661;28;8795;-79
2021/10/04 09:12:45;;;;;;;;;3.00;3.00;;;;;;;;5120716;27;8783;-80
2021/10/04 09:15:20;;;;;;;;;1.75;1.75;;;;;;;;5117769;27;8802;-80
2021/10/04 09:17:45;;;;;;;;;3.00;3.00;;;;;;;;5117029;27;8787;-79
2021/10/04 09:20:11;;;;;;;;;1.00;1.00;;;;;;;;5137773;27;8909;-80
2021/10/04 09:22:36;;;;;;;;;2.00;2.00;;;;;;;;5138491;27;8792;-80
2021/10/04 09:25:03;;;;;;;;;2.00;1.33;;;;;;;;5136518;27;8835;-80
2021/10/04 09:27:32;;;;;;;;;1.50;1.50;;;;;;;;5124263;27;8743;-80
2021/10/04 09:30:06;;;;;;;;;3.25;2.25;;;;;;;;5135424;27;8817;-79
2021/10/04 09:32:36;;;;;;;;;1.00;0.00;;;;;;;;5156335;27;8771;-79
2021/10/04 09:35:20;;;;;;;;;0.00;0.00;;;;;;;;5129661;27;8750;-79
2021/10/04 09:37:48;;;;;;;;;0.00;0.00;;;;;;;;5125597;27;8747;-79
2021/10/04 09:40:39;;;;;;;;;1.50;1.25;;;;;;;;5120922;28;8795;-79
2021/10/04 09:43:10;;;;;;;;;0.25;0.25;;;;;;;;5123326;28;8787;-79
2021/10/04 09:45:35;;;;;;;;;1.25;1.25;;;;;;;;5134362;27;8804;-79
2021/10/04 09:48:11;;;;;;;;;1.00;1.00;;;;;;;;5143639;27;8817;-80
2021/10/04 09:50:37;;;;;;;;;3.25;1.75;;;;;;;;5137402;27;8839;-81
2021/10/04 09:53:04;;;;;;;;;1.00;1.00;;;;;;;;5140548;27;8713;-80
2021/10/04 09:55:30;;;;;;;;;0.00;0.00;;;;;;;;5141722;27;8804;-80
2021/10/04 09:58:00;;;;;;;;;1.00;1.00;;;;;;;;5141322;27;8772;-83
2021/10/04 10:00:26;;;;;;;;;1.75;1.00;;;;;;;;5143134;27;8776;-83
2021/10/04 10:02:54;;;;;;;;;1.50;0.75;;;;;;;;5140003;27;8865;-82
2021/10/04 10:05:24;;;;;;;;;1.00;1.00;;;;;;;;5127873;27;8881;-83
2021/10/04 10:07:49;;;;;;;;;1.00;0.75;;;;;;;;5119560;27;8763;-83
2021/10/04 10:10:14;;;;;;;;;2.33;1.00;;;;;;;;5118049;28;8814;-81
2021/10/04 10:12:40;;;;;;;;;2.67;0.67;;;;;;;;5120450;27;8849;-81
2021/10/04 10:15:05;;;;;;;;;1.33;1.00;;;;;;;;5119372;27;8801;-82
2021/10/04 10:17:32;;;;;;;;;0.00;0.00;;;;;;;;5118844;27;8869;-81
2021/10/04 10:19:59;;;;;;;;;0.25;0.25;;;;;;;;5124603;27;8767;-81
2021/10/04 10:22:29;;;;;;;;;1.00;1.00;;;;;;;;5135481;27;8802;-82
2021/10/04 10:24:55;;;;;;;;;0.00;0.00;;;;;;;;5139361;27;8740;-84
2021/10/04 10:27:36;;;;;;;;;0.50;0.50;;;;;;;;5140711;27;8841;-80
2021/10/04 10:30:15;;;;;;;;;0.75;0.75;;;;;;;;5144779;27;9760;-83
2021/10/04 10:32:40;;;;;;;;;0.50;0.25;;;;;;;;5154099;27;8826;-83
2021/10/04 10:35:05;;;;;;;;;2.00;1.00;;;;;;;;5117299;28;8795;-82
2021/10/04 10:37:44;;;;;;;;;1.33;1.00;;;;;;;;5117403;27;8832;-82
2021/10/04 10:40:28;;;;;;;;;1.00;0.00;;;;;;;;5117938;27;8844;-82
2021/10/04 10:43:03;;;;;;;;;1.00;1.00;;;;;;;;5119054;27;8775;-81
2021/10/04 10:45:43;;;;;;;;;2.50;2.00;;;;;;;;5119048;27;8759;-81
2021/10/04 10:48:08;;;;;;;;;2.00;1.00;;;;;;;;5126251;27;8756;-79
2021/10/04 10:50:35;;;;;;;;;1.67;0.67;;;;;;;;5139013;27;8797;-80
2021/10/04 10:53:00;;;;;;;;;2.00;1.00;;;;;;;;5138851;27;12314;-80
2021/10/04 10:55:33;;;;;;;;;2.00;1.67;;;;;;;;5139327;27;8777;-80
2021/10/04 10:58:00;;;;;;;;;1.25;0.00;;;;;;;;5137456;27;8787;-78
2021/10/04 11:00:27;;;;;;;;;0.00;0.00;;;;;;;;5136112;27;8891;-79
2021/10/04 11:02:59;;;;;;;;;0.20;0.20;;;;;;;;5125931;27;8791;-80
2021/10/04 11:05:45;;;;;;;;;2.00;0.75;;;;;;;;5130418;27;8889;-79
2021/10/04 11:08:11;;;;;;;;;0.75;0.75;;;;;;;;5118228;27;8779;-79
2021/10/04 11:10:49;;;;;;;;;1.25;0.25;;;;;;;;5117687;28;8814;-80
2021/10/04 11:13:25;;;;;;;;;2.75;2.75;;;;;;;;5119454;27;8873;-79
2021/10/04 11:15:52;;;;;;;;;0.75;0.75;;;;;;;;5119622;27;8742;-79
2021/10/04 11:18:17;;;;;;;;;0.50;0.50;;;;;;;;5119214;28;9400;-79
2021/10/04 11:20:43;;;;;;;;;1.67;1.67;;;;;;;;5120348;27;8791;-79
2021/10/04 11:23:10;;;;;;;;;0.00;0.00;;;;;;;;5118107;27;8775;-79
2021/10/04 11:25:48;;;;;;;;;1.00;1.00;;;;;;;;5118766;27;8767;-79
2021/10/04 11:28:14;;;;;;;;;1.80;0.00;;;;;;;;5118913;27;8801;-79
2021/10/04 11:30:51;;;;;;;;;0.00;0.00;;;;;;;;5138601;27;8794;-79
2021/10/04 11:33:16;;;;;;;;;1.00;1.00;;;;;;;;5157992;27;8929;-80
2021/10/04 11:35:53;;;;;;;;;0.00;0.00;;;;;;;;5157686;27;8774;-80
2021/10/04 11:38:18;;;;;;;;;0.75;0.75;;;;;;;;5159198;27;8850;-79
2021/10/04 11:40:45;;;;;;;;;0.67;0.00;;;;;;;;5159684;27;8810;-80
2021/10/04 11:43:10;;;;;;;;;0.00;0.00;;;;;;;;5135990;27;8776;-81
2021/10/04 11:45:35;;;;;;;;;2.00;2.00;;;;;;;;5125710;27;8812;-79
2021/10/04 11:48:01;;;;;;;;;0.00;0.00;;;;;;;;5121316;27;8870;-81
2021/10/04 11:50:27;;;;;;;;;0.75;0.75;;;;;;;;5124187;27;8930;-80
2021/10/04 11:52:53;;;;;;;;;0.00;0.00;;;;;;;;5124792;27;8801;-80
2021/10/04 11:55:20;;;;;;;;;0.00;0.00;;;;;;;;5125512;27;8800;-79
2021/10/04 11:57:45;;;;;;;;;0.20;0.00;;;;;;;;5124995;27;8784;-79
2021/10/04 12:00:12;;;;;;;;;1.00;1.00;;;;;;;;5123966;27;8823;-81
2021/10/04 12:02:42;;;;;;;;;0.20;0.20;;;;;;;;5123132;27;8813;-81
2021/10/04 12:05:11;;;;;;;;;0.40;0.40;;;;;;;;5118772;27;8767;-81
2021/10/04 12:07:37;;;;;;;;;0.20;0.20;;;;;;;;5116295;27;8763;-80
2021/10/04 12:10:03;;;;;;;;;0.00;0.00;;;;;;;;5122856;27;8838;-80
2021/10/04 12:12:33;;;;;;;;;0.00;0.00;;;;;;;;5116025;27;8791;-81
2021/10/04 12:14:59;;;;;;;;;0.00;0.00;;;;;;;;5125458;27;8794;-81
2021/10/04 12:17:24;;;;;;;;;0.75;0.75;;;;;;;;5118148;27;8824;-81
2021/10/04 12:19:51;;;;;;;;;1.20;0.60;;;;;;;;5121364;27;8892;-80
2021/10/04 12:22:32;;;;;;;;;0.00;0.00;;;;;;;;5128306;27;9496;-81
2021/10/04 12:24:57;;;;;;;;;0.00;0.00;;;;;;;;5121160;27;8821;-81
2021/10/04 12:27:23;;;;;;;;;0.00;0.00;;;;;;;;5124786;27;8961;-80
2021/10/04 12:29:57;;;;;;;;;1.50;0.25;;;;;;;;5123298;27;8817;-80
2021/10/04 12:32:39;;;;;;;;;2.80;0.20;;;;;;;;5123594;27;8763;-81
2021/10/04 12:35:09;;;;;;;;;0.00;0.00;;;;;;;;5117911;27;8914;-80
2021/10/04 12:37:37;;;;;;;;;2.00;2.00;;;;;;;;5121825;27;8759;-81
2021/10/04 12:40:18;;;;;;;;;0.00;0.00;;;;;;;;5115833;27;8803;-80
2021/10/04 12:42:44;;;;;;;;;1.00;0.20;;;;;;;;5117538;27;9728;-80
2021/10/04 12:45:11;;;;;;;;;0.00;0.00;;;;;;;;5119464;27;8875;-80
2021/10/04 12:47:51;;;;;;;;;0.20;0.20;;;;;;;;5116740;27;8783;-80
2021/10/04 12:50:20;;;;;;;;;1.00;1.00;;;;;;;;5117578;27;8949;-80
2021/10/04 12:52:45;;;;;;;;;0.60;0.00;;;;;;;;5128094;27;8775;-80
2021/10/04 12:55:10;;;;;;;;;1.00;0.00;;;;;;;;5119128;27;8937;-79
2021/10/04 12:57:36;;;;;;;;;0.67;0.67;;;;;;;;5117734;27;9002;-80
2021/10/04 13:00:04;;;;;;;;;1.00;1.00;;;;;;;;5125827;27;8827;-79
2021/10/04 13:02:30;;;;;;;;;1.75;0.75;;;;;;;;5122480;27;8799;-80
2021/10/04 13:04:56;;;;;;;;;1.33;1.33;;;;;;;;5125376;27;8931;-80
2021/10/04 13:07:23;;;;;;;;;0.25;0.25;;;;;;;;5120816;27;8815;-82
2021/10/04 13:09:48;;;;;;;;;0.25;0.25;;;;;;;;5122790;27;8849;-81
2021/10/04 13:12:15;;;;;;;;;1.33;0.00;;;;;;;;5122510;27;8803;-81
2021/10/04 13:14:41;;;;;;;;;0.20;0.20;;;;;;;;5122605;27;8832;-80
2021/10/04 13:17:06;;;;;;;;;0.00;0.00;;;;;;;;5123511;27;8826;-81
2021/10/04 13:19:31;;;;;;;;;0.50;0.00;;;;;;;;5132914;27;8888;-80
2021/10/04 13:21:57;;;;;;;;;0.00;0.00;;;;;;;;5126999;27;8812;-80
2021/10/04 13:24:22;;;;;;;;;0.67;0.67;;;;;;;;5128938;27;8803;-80
2021/10/04 13:26:48;;;;;;;;;2.00;0.00;;;;;;;;5121409;27;8821;-82
2021/10/04 13:29:14;;;;;;;;;0.00;0.00;;;;;;;;5122099;27;8923;-78
2021/10/04 13:31:39;;;;;;;;;0.00;0.00;;;;;;;;5118599;27;8900;-78
2021/10/04 13:34:05;;;;;;;;;2.00;0.75;;;;;;;;5120512;27;8787;-78
2021/10/04 13:36:30;;;;;;;;;0.00;0.00;;;;;;;;5118703;27;8823;-78
2021/10/04 13:38:56;;;;;;;;;1.00;0.00;;;;;;;;5119349;27;8844;-78
2021/10/04 13:41:22;;;;;;;;;0.75;0.00;;;;;;;;5118181;27;8799;-79
2021/10/04 13:43:47;;;;;;;;;0.00;0.00;;;;;;;;5120495;27;8834;-78
2021/10/04 13:46:13;;;;;;;;;0.00;0.00;;;;;;;;5118896;27;8791;-79
2021/10/04 13:48:38;;;;;;;;;0.00;0.00;;;;;;;;5118092;27;8818;-79
2021/10/04 13:51:03;;;;;;;;;0.00;0.00;;;;;;;;5121680;27;8845;-79
2021/10/04 13:53:29;;;;;;;;;0.00;0.00;;;;;;;;5122683;27;8842;-79
2021/10/04 13:55:55;;;;;;;;;0.00;0.00;;;;;;;;5121086;27;8878;-79
2021/10/04 13:58:21;;;;;;;;;1.80;1.00;;;;;;;;5126841;27;8931;-79
2021/10/04 14:00:47;;;;;;;;;1.25;0.00;;;;;;;;5130507;27;8903;-79
2021/10/04 14:03:12;;;;;;;;;0.00;0.00;;;;;;;;5123395;27;8816;-78
2021/10/04 14:05:38;;;;;;;;;0.50;0.00;;;;;;;;5125208;27;11594;-83
2021/10/04 14:08:03;;;;;;;;;0.00;0.00;;;;;;;;5120692;27;8846;-84
2021/10/04 14:10:28;;;;;;;;;0.00;0.00;;;;;;;;5121690;27;8847;-83
2021/10/04 14:12:54;;;;;;;;;0.00;0.00;;;;;;;;5121079;27;8819;-82
2021/10/04 14:15:19;;;;;;;;;0.25;0.25;;;;;;;;5122155;27;8830;-83
2021/10/04 14:17:45;;;;;;;;;1.50;0.75;;;;;;;;5124526;27;8933;-84
2021/10/04 14:20:12;;;;;;;;;2.67;2.67;;;;;;;;5122156;27;8886;-86
2021/10/04 14:22:37;;;;;;;;;0.00;0.00;;;;;;;;5123509;27;8785;-85
2021/10/04 14:25:03;;;;;;;;;0.00;0.00;;;;;;;;5121152;27;8835;-77
2021/10/04 14:27:28;;;;;;;;;0.00;0.00;;;;;;;;5128882;27;8874;-79
2021/10/04 14:29:55;;;;;;;;;0.00;0.00;;;;;;;;5122337;27;8996;-79
2021/10/04 14:32:21;;;;;;;;;1.00;1.00;;;;;;;;5124249;27;8791;-78
2021/10/04 14:34:46;;;;;;;;;0.00;0.00;;;;;;;;5122097;27;8826;-79
2021/10/04 14:37:12;;;;;;;;;0.00;0.00;;;;;;;;5122376;27;8830;-78
2021/10/04 14:39:37;;;;;;;;;0.00;0.00;;;;;;;;5121687;27;8837;-77
2021/10/04 14:42:03;;;;;;;;;0.00;0.00;;;;;;;;5118140;27;9538;-78
2021/10/04 14:44:28;;;;;;;;;0.00;0.00;;;;;;;;5119629;27;8838;-77
2021/10/04 14:46:54;;;;;;;;;0.00;0.00;;;;;;;;5117944;27;9052;-77
2021/10/04 14:49:20;;;;;;;;;0.75;0.25;;;;;;;;5118469;27;8834;-76
2021/10/04 14:51:46;;;;;;;;;0.00;0.00;;;;;;;;5120815;27;8906;-76